Time;durP1;ratioP1;P1;durP2;ratioP2;P2;SDS_P1;SDS_P2;PMS_P1;PMS_P2;Temp;Humidity;BMP_temperature;BMP_pressure;BME280_temperature;BME280_humidity;BME280_pressure;Samples;Min_cycle;Max_cycle;Signal;HPM_P1;HPM_P2
2021/04/02 00:01:14;;;;;;;12.07;10.58;;;;;;;9.53;51.42;94244.15;793168;74;32935;-80
2021/04/02 00:16:12;;;;;;;14.28;10.70;;;;;;;9.44;52.97;94227.01;834130;71;30295;-80
2021/04/02 00:31:09;;;;;;;18.10;13.32;;;;;;;9.35;53.25;94224.81;829837;71;29702;-79
2021/04/02 00:46:16;;;;;;;14.58;12.05;;;;;;;9.26;53.50;94208.96;834636;71;32921;-79
2021/04/02 01:01:13;;;;;;;18.23;12.35;;;;;;;9.09;53.97;94195.09;829572;70;32773;-79
2021/04/02 01:16:14;;;;;;;19.12;13.22;;;;;;;8.95;54.39;94186.41;828270;71;30185;-80
2021/04/02 01:31:16;;;;;;;15.05;11.38;;;;;;;8.81;54.83;94166.73;828274;71;32796;-81
2021/04/02 01:46:16;;;;;;;17.87;12.93;;;;;;;8.71;54.40;94149.88;828473;71;32729;-81
2021/04/02 02:01:17;;;;;;;17.73;11.90;;;;;;;8.57;55.64;94157.64;827448;71;33277;-80
2021/04/02 02:16:17;;;;;;;20.80;14.90;;;;;;;8.50;55.99;94139.70;827254;71;33195;-79
2021/04/02 02:31:09;;;;;;;25.32;15.85;;;;;;;8.38;56.26;94142.70;828596;71;29985;-79
2021/04/02 02:46:18;;;;;;;21.50;15.50;;;;;;;8.28;56.39;94134.23;827406;71;33244;-82
2021/04/02 03:01:42;;;;;;;23.70;15.93;;;;;;;8.06;56.38;94132.15;828105;71;30313;-81
2021/04/02 03:16:10;;;;;;;22.98;16.30;;;;;;;8.00;56.53;94128.28;828248;71;29978;-81
2021/04/02 03:31:16;;;;;;;23.15;16.20;;;;;;;7.95;57.05;94127.05;827624;71;32722;-80
2021/04/02 03:46:10;;;;;;;24.75;16.60;;;;;;;7.85;57.63;94112.00;828351;71;29692;-83
2021/04/02 04:01:14;;;;;;;23.92;16.45;;;;;;;7.76;57.54;94101.41;828310;71;31544;-82
2021/04/02 04:16:17;;;;;;;25.85;17.95;;;;;;;7.75;57.37;94112.39;833899;71;32712;-80
2021/04/02 04:31:13;;;;;;;28.52;17.67;;;;;;;7.98;57.95;94110.03;828194;71;31633;-79
2021/04/02 04:46:16;;;;;;;31.97;19.70;;;;;;;8.15;57.71;94104.32;827372;71;32790;-76
2021/04/02 05:01:11;;;;;;;26.85;17.50;;;;;;;8.25;57.46;94101.57;827500;70;29811;-78
2021/04/02 05:16:15;;;;;;;30.62;19.95;;;;;;;8.91;55.98;94112.17;835054;71;32696;-78
2021/04/02 05:31:10;;;;;;;31.27;20.43;;;;;;;10.36;51.82;94111.34;834238;71;30231;-77
2021/04/02 05:46:17;;;;;;;38.02;22.90;;;;;;;11.72;49.42;94102.84;820875;71;32700;-83
2021/04/02 06:01:21;;;;;;;38.33;24.25;;;;;;;15.01;42.55;94091.55;835700;70;33217;-82
2021/04/02 07:31:23;;;;;;;20.62;16.32;;;;;;;20.86;32.95;94073.27;800723;74;32942;-79
2021/04/02 08:16:45;;;;;;;24.72;20.72;;;;;;;23.01;26.98;94062.14;829532;71;33259;-85
2021/04/02 09:17:06;;;;;;;;;;;;;;;;;;;;;
2021/04/02 09:31:48;;;;;;;12.67;9.87;;;;;;;24.34;27.77;94029.53;828330;70;32874;-88
2021/04/02 10:32:10;;;;;;;;;;;;;;;;;;;;;
2021/04/02 10:46:11;;;;;;;10.55;9.50;;;;;;;20.15;38.93;94122.36;833886;71;30024;-77
2021/04/02 11:01:08;;;;;;;11.45;10.35;;;;;;;18.51;49.87;94147.39;828064;71;30605;-76
2021/04/02 11:16:15;;;;;;;11.93;10.70;;;;;;;17.25;57.33;94091.86;819574;71;32843;-79
2021/04/02 11:31:16;;;;;;;13.43;12.13;;;;;;;16.99;60.78;94059.94;833752;71;33253;-77
2021/04/02 11:46:14;;;;;;;11.48;10.28;;;;;;;18.20;57.53;94046.74;829273;71;32787;-80
2021/04/02 12:01:29;;;;;;;9.10;8.20;;;;;;;19.52;49.72;94031.77;824384;71;32861;-80
2021/04/02 12:16:11;;;;;;;8.20;7.35;;;;;;;20.68;45.36;94014.42;828614;71;31253;-76
2021/04/02 12:31:10;;;;;;;7.42;6.80;;;;;;;21.38;41.90;93996.05;833951;71;30705;-75
2021/04/02 12:46:10;;;;;;;7.83;7.03;;;;;;;21.65;40.11;93967.86;828438;71;30149;-78
2021/04/02 13:01:15;;;;;;;8.18;7.40;;;;;;;20.98;44.70;93970.33;828685;71;32685;-78
2021/04/02 13:16:15;;;;;;;8.70;7.90;;;;;;;20.70;41.31;93945.50;834852;71;32760;-77
2021/04/02 13:31:16;;;;;;;7.70;6.90;;;;;;;20.42;41.36;93929.94;827409;71;33136;-78
2021/04/02 13:46:16;;;;;;;9.50;7.53;;;;;;;19.69;42.77;93934.13;834059;71;32659;-80
2021/04/02 14:01:14;;;;;;;7.50;6.80;;;;;;;19.50;42.87;93908.94;828215;71;32673;-77
2021/04/02 14:16:21;;;;;;;8.00;7.03;;;;;;;19.31;42.92;93911.91;832172;70;32755;-77
2021/04/02 14:31:08;;;;;;;7.33;6.62;;;;;;;19.24;42.82;93901.14;820456;71;29779;-77
2021/04/02 14:46:44;;;;;;;7.37;6.67;;;;;;;18.73;43.97;93890.23;838326;70;32781;-76
2021/04/02 15:01:51;;;;;;;6.92;6.28;;;;;;;18.37;44.90;93896.27;826881;71;32778;-77
2021/04/02 15:16:08;;;;;;;7.22;6.53;;;;;;;18.04;45.52;93882.16;827788;71;29780;-77
2021/04/02 15:46:16;;;;;;;9.95;8.90;;;;;;;17.75;46.69;93889.53;829178;71;31974;-79
2021/04/02 16:01:12;;;;;;;9.10;7.80;;;;;;;17.48;46.31;93889.13;833641;71;31503;-79
2021/04/02 16:16:14;;;;;;;9.63;7.70;;;;;;;17.38;46.84;93907.12;827016;71;32707;-78
2021/04/02 16:31:09;;;;;;;10.32;8.03;;;;;;;17.20;47.25;93906.72;834571;71;30396;-77
